Flight Track Log - Related Links

Times and Time Zones

All times are in EST time to prevent confusion due to time zone crossing. See the ASH2854 flight status page for this flight to view local times or setup timezone preferences in your user account.

Time Position Orientation Groundspeed Altitude Reporting Facility
EST Latitude Longitude Course Direction KTS MPH feet Rate Location/Type
Thu 09:39:48 AM 40.0014 -82.8742 171° South 143 165 1,500  Level Indianapolis Center
Thu 09:41:05 AM 39.9967 -82.7819 94° East 203 234 4,200 2,288 Climbing Indianapolis Center
Thu 09:42:07 AM 39.9581 -82.7133 126° Southeast 255 293 6,800 2,710 Climbing Indianapolis Center
Thu 09:43:00 AM 39.6254 -82.7314 169° South  Level Estimated
Thu 09:43:09 AM 39.8817 -82.7000 172° South 272 313 9,800  Level Indianapolis Center
Thu 09:44:00 AM 39.5325 -82.6915 163° South  Level Estimated
Thu 09:44:11 AM 39.7983 -82.6828 171° South 291 335 11,800  Level Indianapolis Center
Thu 09:45:00 AM 39.4395 -82.6516 171° South  Level Estimated
Thu 09:45:13 AM 39.6958 -82.6678 174° South 328 377 14,600  Level Indianapolis Center
Thu 09:46:15 AM 39.6014 -82.6494 171° South 340 391 17,100 1,984 Climbing Indianapolis Center
Thu 09:47:17 AM 39.5114 -82.6344 173° South 346 398 18,700 2,032 Climbing Indianapolis Center
Thu 09:48:19 AM 39.3919 -82.6133 172° South 356 410 21,300 2,177 Climbing Indianapolis Center
Thu 09:49:21 AM 39.2911 -82.5975 173° South 359 413 23,200 1,680 Climbing Indianapolis Center
Thu 09:50:24 AM 39.1875 -82.5794 172° South 369 425 24,800 864 Climbing Indianapolis Center
Thu 09:51:26 AM 39.0686 -82.5586 172° South 391 450 25,000 97 Climbing Indianapolis Center
Thu 09:52:28 AM 38.9525 -82.5406 173° South 413 475 25,000  Level Indianapolis Center
Thu 09:53:30 AM 38.8386 -82.5206 172° South 417 480 25,000  Level Indianapolis Center
Thu 09:54:32 AM 38.7225 -82.5011 173° South 417 480 25,000  Level Indianapolis Center
Thu 09:55:34 AM 38.5850 -82.4786 173° South 417 480 25,000  Level Indianapolis Center
Thu 09:56:36 AM 38.4686 -82.4592 173° South 419 482 25,000  Level Indianapolis Center
Thu 09:57:38 AM 38.3531 -82.4403 173° South 419 482 25,000  Level Indianapolis Center
Thu 09:58:40 AM 38.2378 -82.4219 173° South 419 482 25,000  Level Indianapolis Center
Thu 09:59:42 AM 38.1222 -82.4039 173° South 419 482 25,000  Level Indianapolis Center
Thu 10:00:44 AM 37.9958 -82.3819 172° South 419 482 25,000  Level Indianapolis Center
Thu 10:01:47 AM 37.8792 -82.3611 172° South 420 483 25,000  Level Indianapolis Center
Thu 10:02:49 AM 37.7419 -82.3386 173° South 421 484 25,000  Level Indianapolis Center
Thu 10:03:51 AM 37.6247 -82.3183 172° South 421 484 25,000  Level Indianapolis Center
Thu 10:04:53 AM 37.5092 -82.2983 172° South 421 484 25,000  Level Indianapolis Center
Thu 10:05:55 AM 37.3931 -82.2806 173° South 420 483 25,000  Level Indianapolis Center
Thu 10:06:57 AM 37.2803 -82.2619 173° South 414 476 25,000  Level Indianapolis Center
Thu 10:07:59 AM 37.1667 -82.2442 173° South 411 473 25,000  Level Indianapolis Center
Thu 10:09:01 AM 37.0522 -82.2258 173° South 411 473 25,000  Level Indianapolis Center
Thu 10:10:03 AM 36.9189 -82.2050 173° South 411 473 25,000  Level Indianapolis Center
Thu 10:11:05 AM 36.8053 -82.1869 173° South 411 473 25,000  Level Indianapolis Center
Thu 10:12:07 AM 36.6917 -82.1683 173° South 411 473 25,000  Level Indianapolis Center
Thu 10:13:09 AM 36.5778 -82.1514 173° South 410 472 25,000  Level Indianapolis Center
Thu 10:14:10 AM 36.4669 -82.1336 173° South 412 474 25,000  Level Atlanta Center
Thu 10:15:10 AM 36.3575 -82.0769 157° South 412 474 25,000  Level Atlanta Center
Thu 10:16:10 AM 36.2522 -82.0072 152° Southeast 424 488 25,000 -600 Level Atlanta Center
Thu 10:17:10 AM 36.1531 -81.9403 151° Southeast 424 488 23,800 -1,750 Descending Atlanta Center
Thu 10:18:10 AM 36.0475 -81.8739 153° Southeast 424 488 21,500 -2,300 Descending Atlanta Center
Thu 10:19:10 AM 35.9442 -81.8072 152° Southeast 419 482 19,200 -2,250 Descending Atlanta Center
Thu 10:20:10 AM 35.8469 -81.7433 152° Southeast 405 466 17,000 -2,514 Descending Atlanta Center
Thu 10:20:55 AM 35.7689 -81.6944 153° Southeast 372 428 14,800 -2,500 Descending Atlanta Center
Thu 10:21:10 AM 35.7561 -81.6844 148° Southeast 390 449 14,500 -2,509 Descending Atlanta Center
Thu 10:21:50 AM 35.6844 -81.6406 154° Southeast 356 410 12,500 -2,300 Descending Atlanta Center
Thu 10:22:10 AM 35.6675 -81.6283 150° Southeast 371 427 12,200 -492 Descending Atlanta Center
Thu 10:22:51 AM 35.6083 -81.5867 150° Southeast 308 354 12,000 -200 Descending Atlanta Center
Thu 10:23:10 AM 35.5911 -81.5617 130° Southeast 335 386 12,000  Level Atlanta Center
Thu 10:23:47 AM 35.5589 -81.5167 131° Southeast 286 329 12,000  Level Atlanta Center
Thu 10:24:10 AM 35.5394 -81.4839 126° Southeast 299 344 12,000  Level Atlanta Center
Thu 10:24:48 AM 35.5092 -81.4364 128° Southeast 292 336 12,000 -500 Level Atlanta Center
Thu 10:25:10 AM 35.4878 -81.4092 134° Southeast 293 337 11,500 -1,574 Descending Atlanta Center
Thu 10:25:49 AM 35.4594 -81.3617 126° Southeast 284 327 10,400 -1,600 Descending Atlanta Center
Thu 10:26:10 AM 35.4381 -81.3317 131° Southeast 288 331 9,900 -1,279 Descending Atlanta Center
Thu 10:26:50 AM 35.4056 -81.2844 130° Southeast 270 311 9,100 -900 Descending Atlanta Center
Thu 10:27:10 AM 35.3906 -81.2619 129° Southeast 275 316 9,000 -98 Descending Atlanta Center
Thu 10:27:51 AM 35.3583 -81.2147 130° Southeast 267 307 9,000  Level Atlanta Center
Thu 10:28:10 AM 35.3411 -81.1922 133° Southeast 275 316 9,000  Level Atlanta Center
Thu 10:28:52 AM 35.3169 -81.1497 125° Southeast 241 277 9,000  Level Atlanta Center
Thu 10:29:10 AM 35.3019 -81.1325 137° Southeast 259 298 9,000  Level Atlanta Center
Thu 10:29:53 AM 35.2761 -81.0903 127° Southeast 223 257 9,000  Level Atlanta Center
Thu 10:30:10 AM 35.2589 -81.0756 145° Southeast 242 278 9,000 -218 Level Atlanta Center
Thu 10:30:48 AM 35.2192 -81.0744 179° South 232 267 8,800 -811 Descending Atlanta Center
Thu 10:32:01 AM 35.1419 -81.0644 174° South 228 262 7,500 -1,030 Descending Atlanta Center
Thu 10:33:02 AM 35.0814 -81.0617 178° South 219 252 6,500 -984 Descending Atlanta Center
Thu 10:34:03 AM 35.0144 -81.0564 176° South 224 258 5,500 -738 Descending Atlanta Center
Thu 10:35:04 AM 34.9536 -81.0433 170° South 213 245 5,000 -259 Descending Atlanta Center
Thu 10:35:59 AM 34.9564 -80.9900 86° East 166 191 5,000 -109 Level Atlanta Center
Thu 10:36:54 AM 34.9911 -80.9608 35° Northeast 166 191 4,800 -545 Descending Atlanta Center
Thu 10:38:00 AM 35.0433 -80.9564 North 178 205 3,900 -843 Descending Atlanta Center
Thu 10:38:55 AM 35.0872 -80.9600 356° North 167 192 3,100 -836 Descending Atlanta Center
Thu 10:40:02 AM 35.1308 -80.9608 359° North 140 161 2,200 -703 Descending Atlanta Center
Thu 10:41:03 AM 35.1664 -80.9644 355° North 124 143 1,600 -590 Descending Atlanta Center

Login

Don't have an account? Register now (free) for customized features, flight alerts, and more!